Time;durP1;ratioP1;P1;durP2;ratioP2;P2;SDS_P1;SDS_P2;PMS_P1;PMS_P2;Temp;Humidity;BMP_temperature;BMP_pressure;BME280_temperature;BME280_humidity;BME280_pressure;Samples;Min_cycle;Max_cycle;Signal;HPM_P1;HPM_P2
2023/10/04 00:00:15;;;;;;;3.08;1.20;;;;;;;;;;5014827;28;20058;-75
2023/10/04 00:02:43;;;;;;;3.05;1.20;;;;;;;;;;5015374;28;20064;-75
2023/10/04 00:05:10;;;;;;;2.00;1.25;;;;;;;;;;5015250;28;20388;-75
2023/10/04 00:07:37;;;;;;;2.70;1.27;;;;;;;;;;5014945;28;20060;-75
2023/10/04 00:10:06;;;;;;;6.13;1.60;;;;;;;;;;5015250;28;20057;-75
2023/10/04 00:12:33;;;;;;;4.10;1.90;;;;;;;;;;5014415;28;20062;-75
2023/10/04 00:15:00;;;;;;;5.10;1.92;;;;;;;;;;5014928;28;20490;-75
2023/10/04 00:17:26;;;;;;;2.47;1.38;;;;;;;;;;5014809;28;20065;-75
2023/10/04 00:19:56;;;;;;;4.90;1.80;;;;;;;;;;5015450;28;20053;-75
2023/10/04 00:22:23;;;;;;;3.30;1.75;;;;;;;;;;5014754;28;20069;-75
2023/10/04 00:24:51;;;;;;;3.78;1.75;;;;;;;;;;5015136;28;20061;-75
2023/10/04 00:27:20;;;;;;;2.90;1.70;;;;;;;;;;5014911;28;20411;-75
2023/10/04 00:29:46;;;;;;;3.58;1.60;;;;;;;;;;5012527;28;20479;-75
2023/10/04 00:32:14;;;;;;;3.72;1.10;;;;;;;;;;5015013;28;20057;-75
2023/10/04 00:34:40;;;;;;;3.55;2.00;;;;;;;;;;5014427;28;20058;-75
2023/10/04 00:37:08;;;;;;;3.25;1.65;;;;;;;;;;5014567;28;20518;-75
2023/10/04 00:39:36;;;;;;;4.88;2.15;;;;;;;;;;5015075;28;20057;-75
2023/10/04 00:42:03;;;;;;;3.85;1.58;;;;;;;;;;5014958;28;20046;-75
2023/10/04 00:44:35;;;;;;;3.70;1.80;;;;;;;;;;5016920;28;20057;-74
2023/10/04 00:47:05;;;;;;;3.15;1.50;;;;;;;;;;5034443;28;20057;-74
2023/10/04 00:49:33;;;;;;;3.70;1.77;;;;;;;;;;5034715;28;20061;-75
2023/10/04 00:52:00;;;;;;;2.83;1.90;;;;;;;;;;5034681;28;20050;-74
2023/10/04 00:54:27;;;;;;;3.30;1.50;;;;;;;;;;5034405;28;20049;-75
2023/10/04 00:57:02;;;;;;;4.43;1.85;;;;;;;;;;5033897;28;20057;-74
2023/10/04 00:59:29;;;;;;;4.60;1.98;;;;;;;;;;5014755;28;20057;-75
2023/10/04 01:01:57;;;;;;;3.72;2.13;;;;;;;;;;5016443;28;20050;-75
2023/10/04 01:04:25;;;;;;;4.15;1.65;;;;;;;;;;5016198;28;20061;-75
2023/10/04 01:06:52;;;;;;;5.97;1.85;;;;;;;;;;5026093;28;20053;-75
2023/10/04 01:09:22;;;;;;;3.78;2.17;;;;;;;;;;5017916;28;20380;-75
2023/10/04 01:11:52;;;;;;;3.20;1.17;;;;;;;;;;5015928;28;20049;-74
2023/10/04 01:14:25;;;;;;;3.33;1.60;;;;;;;;;;5015510;28;20054;-74
2023/10/04 01:16:52;;;;;;;4.03;1.40;;;;;;;;;;5015232;28;20057;-75
2023/10/04 01:19:22;;;;;;;3.38;1.38;;;;;;;;;;5015328;28;20061;-74
2023/10/04 01:21:49;;;;;;;2.20;1.30;;;;;;;;;;5015396;28;20054;-75
2023/10/04 01:24:20;;;;;;;4.80;1.90;;;;;;;;;;5015399;28;20054;-75
2023/10/04 01:26:47;;;;;;;4.03;1.55;;;;;;;;;;5015473;28;20054;-75
2023/10/04 01:29:16;;;;;;;3.33;1.20;;;;;;;;;;5014896;28;20058;-75
2023/10/04 01:31:45;;;;;;;4.65;2.05;;;;;;;;;;5015400;28;20049;-74
2023/10/04 01:34:13;;;;;;;5.45;1.70;;;;;;;;;;5015135;28;20054;-74
2023/10/04 01:36:41;;;;;;;6.35;1.67;;;;;;;;;;5014638;28;20072;-75
2023/10/04 01:39:15;;;;;;;2.72;1.42;;;;;;;;;;5014786;28;20061;-74
2023/10/04 01:41:44;;;;;;;2.88;1.45;;;;;;;;;;5014629;28;20053;-75
2023/10/04 01:44:14;;;;;;;4.60;1.52;;;;;;;;;;5014350;28;20057;-74
2023/10/04 01:46:44;;;;;;;6.13;2.97;;;;;;;;;;5014123;28;20057;-75
2023/10/04 01:49:10;;;;;;;4.07;1.90;;;;;;;;;;5014232;28;20077;-75
2023/10/04 01:51:42;;;;;;;4.20;1.50;;;;;;;;;;5014037;28;20049;-75
2023/10/04 01:54:09;;;;;;;3.70;1.75;;;;;;;;;;5030610;28;20068;-75
2023/10/04 01:56:38;;;;;;;3.53;1.63;;;;;;;;;;5033411;28;20053;-75
2023/10/04 01:59:07;;;;;;;4.47;1.20;;;;;;;;;;5014068;28;20057;-75
2023/10/04 02:01:33;;;;;;;3.58;1.55;;;;;;;;;;5013456;28;20050;-77
2023/10/04 02:04:03;;;;;;;2.88;1.38;;;;;;;;;;5031477;28;20156;-75
2023/10/04 02:06:29;;;;;;;;;;;;;;;;;;5033768;28;20494;-75
2023/10/04 02:09:00;;;;;;;4.90;1.45;;;;;;;;;;5033084;28;19921;-75
2023/10/04 02:11:36;;;;;;;4.18;1.50;;;;;;;;;;5033317;28;20052;-75
2023/10/04 02:14:03;;;;;;;2.92;1.17;;;;;;;;;;5028994;28;20060;-74
2023/10/04 02:16:31;;;;;;;6.28;1.75;;;;;;;;;;5032952;28;20057;-75
2023/10/04 02:18:59;;;;;;;2.45;1.40;;;;;;;;;;5032832;28;20057;-76
2023/10/04 02:21:26;;;;;;;3.05;1.63;;;;;;;;;;5032964;28;20050;-75
2023/10/04 02:23:54;;;;;;;3.17;1.45;;;;;;;;;;5033069;28;20076;-75
2023/10/04 02:26:22;;;;;;;3.15;1.30;;;;;;;;;;5033207;28;20057;-75
2023/10/04 02:28:51;;;;;;;3.17;1.77;;;;;;;;;;5014638;28;20054;-75
2023/10/04 02:31:21;;;;;;;3.97;1.90;;;;;;;;;;5012866;28;20054;-74
2023/10/04 02:33:51;;;;;;;4.28;1.83;;;;;;;;;;5013075;28;20054;-75
2023/10/04 02:36:18;;;;;;;1.95;0.98;;;;;;;;;;5012739;28;20066;-75
2023/10/04 02:38:47;;;;;;;4.93;2.22;;;;;;;;;;5013239;28;20057;-75
2023/10/04 02:41:15;;;;;;;4.55;1.30;;;;;;;;;;5012564;28;20050;-75
2023/10/04 02:43:42;;;;;;;3.95;2.38;;;;;;;;;;5012836;28;20053;-75
2023/10/04 02:46:10;;;;;;;2.85;1.95;;;;;;;;;;5013230;28;20058;-74
2023/10/04 02:48:37;;;;;;;4.85;1.60;;;;;;;;;;5012733;28;20061;-75
2023/10/04 02:51:05;;;;;;;4.45;1.65;;;;;;;;;;5012760;28;20058;-75
2023/10/04 02:53:32;;;;;;;7.90;1.50;;;;;;;;;;5012722;28;20096;-75
2023/10/04 02:55:59;;;;;;;6.88;2.95;;;;;;;;;;5012808;28;20061;-75
2023/10/04 02:58:26;;;;;;;4.93;2.00;;;;;;;;;;5014395;28;20049;-75
2023/10/04 03:00:54;;;;;;;2.67;1.52;;;;;;;;;;5027546;28;20056;-75
2023/10/04 03:03:22;;;;;;;3.03;1.30;;;;;;;;;;5011655;28;20411;-75
2023/10/04 03:05:49;;;;;;;4.90;1.50;;;;;;;;;;5012514;28;20061;-75
2023/10/04 03:08:23;;;;;;;3.33;1.60;;;;;;;;;;5017569;28;20049;-75
2023/10/04 03:10:51;;;;;;;6.25;2.53;;;;;;;;;;5032557;28;20054;-75
2023/10/04 03:13:24;;;;;;;4.20;2.22;;;;;;;;;;5017292;28;20486;-75
2023/10/04 03:15:51;;;;;;;3.75;1.40;;;;;;;;;;5032240;28;20498;-75
2023/10/04 03:18:20;;;;;;;5.25;1.77;;;;;;;;;;5031796;28;20524;-75
2023/10/04 03:20:54;;;;;;;3.75;1.50;;;;;;;;;;5033276;28;20413;-75
2023/10/04 03:23:25;;;;;;;4.57;3.05;;;;;;;;;;5036228;28;20046;-75
2023/10/04 03:25:52;;;;;;;3.97;1.65;;;;;;;;;;5035879;28;20060;-76
2023/10/04 03:28:21;;;;;;;7.95;2.00;;;;;;;;;;5021614;28;20049;-75
2023/10/04 03:30:49;;;;;;;4.68;1.75;;;;;;;;;;5016330;28;20491;-75
2023/10/04 03:33:16;;;;;;;8.38;2.15;;;;;;;;;;5016002;28;20061;-75
2023/10/04 03:35:44;;;;;;;4.05;1.70;;;;;;;;;;5015821;28;20057;-75
2023/10/04 03:38:11;;;;;;;12.05;2.92;;;;;;;;;;5015821;28;20064;-75
2023/10/04 03:40:39;;;;;;;3.58;1.50;;;;;;;;;;5015904;28;20380;-75
2023/10/04 03:43:07;;;;;;;5.22;2.28;;;;;;;;;;5015721;28;20406;-75
2023/10/04 03:45:35;;;;;;;8.88;2.97;;;;;;;;;;5015492;28;20062;-74
2023/10/04 03:48:02;;;;;;;7.13;2.80;;;;;;;;;;5015804;28;20100;-75
2023/10/04 03:50:29;;;;;;;8.35;2.53;;;;;;;;;;5015322;28;20054;-75
2023/10/04 03:52:57;;;;;;;7.25;2.15;;;;;;;;;;5015957;28;20054;-75
2023/10/04 03:55:26;;;;;;;3.60;1.70;;;;;;;;;;5015819;28;20053;-75
2023/10/04 03:57:55;;;;;;;5.50;2.10;;;;;;;;;;5015684;28;20057;-75
2023/10/04 04:00:23;;;;;;;3.53;2.10;;;;;;;;;;5015684;28;20056;-74
2023/10/04 04:02:50;;;;;;;3.22;2.00;;;;;;;;;;5014939;28;20050;-74
2023/10/04 04:05:21;;;;;;;6.85;2.20;;;;;;;;;;5015488;28;20050;-75
2023/10/04 04:07:48;;;;;;;6.20;2.13;;;;;;;;;;5024923;28;20057;-75
2023/10/04 04:10:16;;;;;;;2.85;1.70;;;;;;;;;;5023210;28;20053;-75
2023/10/04 04:12:45;;;;;;;4.00;2.10;;;;;;;;;;5024444;28;20056;-76
2023/10/04 04:15:14;;;;;;;4.65;1.60;;;;;;;;;;5034737;28;20488;-75
2023/10/04 04:17:43;;;;;;;4.68;2.47;;;;;;;;;;5034114;28;20057;-75
2023/10/04 04:20:14;;;;;;;3.83;2.05;;;;;;;;;;5031474;28;20062;-75
2023/10/04 04:22:42;;;;;;;5.93;1.58;;;;;;;;;;5014956;28;20050;-75
2023/10/04 04:25:14;;;;;;;9.02;2.20;;;;;;;;;;5015057;28;20406;-75
2023/10/04 04:27:43;;;;;;;4.55;2.40;;;;;;;;;;5014759;28;20049;-75
2023/10/04 04:30:16;;;;;;;5.35;1.92;;;;;;;;;;5015050;28;20054;-75
2023/10/04 04:32:47;;;;;;;2.92;1.70;;;;;;;;;;5013995;28;20053;-75
2023/10/04 04:35:22;;;;;;;2.97;1.52;;;;;;;;;;5014795;28;20061;-77
2023/10/04 04:37:53;;;;;;;4.85;1.83;;;;;;;;;;5015316;28;20060;-75
2023/10/04 04:40:24;;;;;;;4.78;2.00;;;;;;;;;;5015589;28;20058;-75
2023/10/04 04:42:51;;;;;;;5.43;2.55;;;;;;;;;;5014145;28;20050;-75
2023/10/04 04:45:23;;;;;;;2.50;1.58;;;;;;;;;;5014235;28;20050;-75
2023/10/04 04:47:51;;;;;;;3.42;2.13;;;;;;;;;;5027882;28;20053;-75
2023/10/04 04:50:19;;;;;;;7.03;2.45;;;;;;;;;;5024708;28;20050;-75
2023/10/04 04:52:45;;;;;;;3.83;1.67;;;;;;;;;;5014469;28;20054;-75
2023/10/04 04:55:14;;;;;;;7.75;2.17;;;;;;;;;;5014727;28;20054;-75
2023/10/04 04:57:41;;;;;;;8.02;2.47;;;;;;;;;;5015322;28;20050;-77
2023/10/04 05:00:30;;;;;;;6.30;1.70;;;;;;;;;;5028778;28;20505;-75
2023/10/04 05:02:57;;;;;;;4.53;1.98;;;;;;;;;;5020180;28;20053;-76
2023/10/04 05:05:24;;;;;;;4.97;2.58;;;;;;;;;;5014702;28;20054;-75
2023/10/04 05:07:51;;;;;;;4.05;2.00;;;;;;;;;;5016815;28;20525;-75
2023/10/04 05:10:18;;;;;;;4.40;2.05;;;;;;;;;;5030263;28;20065;-75
2023/10/04 05:12:46;;;;;;;5.65;2.22;;;;;;;;;;5013949;28;20050;-75
2023/10/04 05:15:24;;;;;;;5.22;1.90;;;;;;;;;;5014360;28;20064;-75
2023/10/04 05:17:51;;;;;;;4.97;2.05;;;;;;;;;;5023805;28;20064;-75
2023/10/04 05:20:21;;;;;;;4.43;2.65;;;;;;;;;;5027768;28;20057;-75
2023/10/04 05:22:49;;;;;;;4.68;2.15;;;;;;;;;;5014864;28;20069;-75
2023/10/04 05:25:16;;;;;;;5.82;2.15;;;;;;;;;;5014031;28;20061;-75
2023/10/04 05:27:45;;;;;;;6.60;2.38;;;;;;;;;;4997018;28;20130;-75
2023/10/04 05:30:15;;;;;;;6.80;3.37;;;;;;;;;;5025709;28;20053;-75
2023/10/04 05:32:42;;;;;;;5.95;2.42;;;;;;;;;;5032402;28;21011;-75
2023/10/04 05:35:12;;;;;;;5.28;2.50;;;;;;;;;;5030112;28;20054;-75
2023/10/04 05:37:41;;;;;;;3.90;2.22;;;;;;;;;;5017223;28;20057;-75
2023/10/04 05:40:16;;;;;;;3.30;1.98;;;;;;;;;;5022503;28;20060;-74
2023/10/04 05:42:44;;;;;;;7.65;3.00;;;;;;;;;;5016822;28;20058;-75
2023/10/04 05:45:11;;;;;;;13.05;3.88;;;;;;;;;;5027166;28;20046;-75
2023/10/04 05:47:38;;;;;;;5.32;2.55;;;;;;;;;;5013827;28;20415;-73
2023/10/04 05:50:07;;;;;;;4.82;2.45;;;;;;;;;;5012313;28;20049;-75
2023/10/04 05:52:34;;;;;;;5.73;3.10;;;;;;;;;;5015220;28;20053;-76
2023/10/04 05:55:03;;;;;;;6.35;2.80;;;;;;;;;;5018595;28;20488;-78
2023/10/04 05:57:30;;;;;;;6.30;2.88;;;;;;;;;;5016699;28;20069;-75
2023/10/04 05:59:57;;;;;;;8.35;2.70;;;;;;;;;;5022393;28;20073;-75
2023/10/04 06:02:24;;;;;;;9.98;4.00;;;;;;;;;;5013310;28;20053;-75
2023/10/04 06:04:51;;;;;;;6.78;2.92;;;;;;;;;;5023496;28;20062;-76
2023/10/04 06:07:18;;;;;;;5.13;2.97;;;;;;;;;;5022641;28;20050;-77
2023/10/04 06:09:45;;;;;;;5.03;2.72;;;;;;;;;;5027135;28;20045;-77
2023/10/04 06:12:13;;;;;;;5.38;2.75;;;;;;;;;;5023113;28;20054;-77
2023/10/04 06:14:40;;;;;;;8.95;3.65;;;;;;;;;;5017066;28;20057;-77
2023/10/04 06:17:07;;;;;;;8.52;3.22;;;;;;;;;;5013983;28;20462;-77
2023/10/04 06:19:34;;;;;;;8.43;4.00;;;;;;;;;;5012204;28;20062;-76
2023/10/04 06:22:02;;;;;;;7.53;3.25;;;;;;;;;;5013434;28;20053;-76
2023/10/04 06:24:28;;;;;;;34.25;4.95;;;;;;;;;;5011914;28;20073;-77
2023/10/04 06:26:56;;;;;;;7.50;3.45;;;;;;;;;;5020693;28;20387;-77
2023/10/04 06:29:24;;;;;;;50.47;4.75;;;;;;;;;;5018387;28;20057;-78
2023/10/04 06:31:51;;;;;;;5.93;3.40;;;;;;;;;;5020238;28;20058;-78
2023/10/04 06:34:17;;;;;;;4.53;3.40;;;;;;;;;;5026125;28;20053;-77
2023/10/04 06:36:45;;;;;;;6.03;3.13;;;;;;;;;;5030073;28;20069;-77
2023/10/04 06:39:12;;;;;;;8.70;3.85;;;;;;;;;;5030194;28;20402;-78
2023/10/04 06:41:39;;;;;;;6.88;3.33;;;;;;;;;;5023198;28;20050;-76
2023/10/04 06:44:07;;;;;;;10.07;4.03;;;;;;;;;;5021409;28;20394;-76
2023/10/04 06:46:36;;;;;;;5.50;3.08;;;;;;;;;;5017673;28;20054;-76
2023/10/04 06:49:05;;;;;;;6.93;2.67;;;;;;;;;;5020666;28;20053;-76
2023/10/04 06:51:31;;;;;;;4.85;3.13;;;;;;;;;;5015977;28;20058;-76
2023/10/04 06:53:58;;;;;;;7.65;3.70;;;;;;;;;;5014781;28;20489;-76
2023/10/04 06:56:25;;;;;;;7.80;2.85;;;;;;;;;;5013955;28;20058;-78
2023/10/04 06:58:52;;;;;;;4.93;3.20;;;;;;;;;;5026221;28;20053;-78
2023/10/04 07:01:18;;;;;;;7.80;3.50;;;;;;;;;;5025052;28;20057;-78
2023/10/04 07:03:47;;;;;;;8.30;3.10;;;;;;;;;;5031624;28;20038;-78
2023/10/04 07:06:13;;;;;;;4.55;3.10;;;;;;;;;;5026435;28;20056;-77
2023/10/04 07:08:41;;;;;;;5.78;3.33;;;;;;;;;;5015545;28;20061;-76
2023/10/04 07:11:07;;;;;;;6.10;3.38;;;;;;;;;;5018397;28;20053;-76
2023/10/04 07:13:34;;;;;;;5.80;3.45;;;;;;;;;;5024829;28;20054;-77
2023/10/04 07:16:01;;;;;;;4.13;2.75;;;;;;;;;;5023994;28;20069;-76
2023/10/04 07:18:29;;;;;;;5.57;2.88;;;;;;;;;;5015077;28;20058;-76
2023/10/04 07:20:57;;;;;;;6.18;2.70;;;;;;;;;;5027223;28;20053;-77
2023/10/04 07:23:24;;;;;;;6.47;2.58;;;;;;;;;;5023461;28;20045;-76
2023/10/04 07:25:51;;;;;;;5.55;2.83;;;;;;;;;;5020691;28;20054;-76
2023/10/04 07:28:18;;;;;;;5.30;2.80;;;;;;;;;;5019183;28;20506;-77
2023/10/04 07:30:45;;;;;;;6.32;2.90;;;;;;;;;;5028668;28;20129;-76
2023/10/04 07:33:12;;;;;;;6.60;3.20;;;;;;;;;;5024235;28;20053;-77
2023/10/04 07:35:39;;;;;;;5.18;2.63;;;;;;;;;;5039104;28;20387;-76
2023/10/04 07:38:07;;;;;;;7.65;2.83;;;;;;;;;;5026280;28;20057;-76
2023/10/04 07:40:35;;;;;;;4.32;2.63;;;;;;;;;;5026301;28;20068;-77
2023/10/04 07:43:01;;;;;;;5.18;2.40;;;;;;;;;;5019599;28;20505;-76
2023/10/04 07:45:29;;;;;;;5.00;2.60;;;;;;;;;;5023566;28;20084;-76
2023/10/04 07:47:56;;;;;;;3.55;2.25;;;;;;;;;;5034424;28;20057;-77
2023/10/04 07:50:25;;;;;;;6.63;2.50;;;;;;;;;;5034422;28;20084;-77
2023/10/04 07:52:52;;;;;;;3.65;2.03;;;;;;;;;;5033954;28;20057;-78
2023/10/04 07:55:22;;;;;;;4.90;2.63;;;;;;;;;;5025951;28;20053;-77
2023/10/04 07:57:50;;;;;;;6.95;2.80;;;;;;;;;;5034304;28;20414;-77
2023/10/04 08:00:17;;;;;;;8.82;2.88;;;;;;;;;;5034327;28;20054;-77
2023/10/04 08:02:49;;;;;;;4.90;2.03;;;;;;;;;;5014439;28;20057;-78
2023/10/04 08:05:18;;;;;;;5.10;2.30;;;;;;;;;;5021673;28;20048;-78
2023/10/04 08:07:45;;;;;;;;;;;;;;;;;;5034216;28;20053;-78
2023/10/04 08:10:13;;;;;;;4.72;2.60;;;;;;;;;;5028046;28;19921;-76
2023/10/04 08:12:42;;;;;;;6.75;2.00;;;;;;;;;;5029701;28;20426;-76
2023/10/04 08:15:12;;;;;;;5.70;2.60;;;;;;;;;;5030334;28;20057;-76
2023/10/04 08:17:38;;;;;;;3.67;2.15;;;;;;;;;;5013628;28;20072;-77
2023/10/04 08:20:06;;;;;;;6.47;2.53;;;;;;;;;;5031932;28;20411;-77
2023/10/04 08:22:33;;;;;;;5.90;2.25;;;;;;;;;;5017338;28;20506;-78
2023/10/04 08:25:00;;;;;;;4.43;2.40;;;;;;;;;;5018505;28;20048;-78
2023/10/04 08:27:27;;;;;;;5.78;2.65;;;;;;;;;;5030661;28;20702;-78
2023/10/04 08:29:55;;;;;;;3.70;2.13;;;;;;;;;;5032221;28;20061;-78
2023/10/04 08:32:23;;;;;;;6.93;2.72;;;;;;;;;;5033393;28;20060;-77
2023/10/04 08:34:50;;;;;;;5.45;1.90;;;;;;;;;;5033385;28;20050;-77
2023/10/04 08:37:17;;;;;;;5.20;2.30;;;;;;;;;;5031962;28;20801;-79
2023/10/04 08:39:43;;;;;;;5.72;1.95;;;;;;;;;;5014415;28;20061;-78
2023/10/04 08:42:10;;;;;;;4.35;2.25;;;;;;;;;;5017723;28;20498;-78
2023/10/04 08:44:37;;;;;;;4.25;1.95;;;;;;;;;;5026135;28;20054;-78
2023/10/04 08:47:06;;;;;;;5.10;2.45;;;;;;;;;;5021486;28;20054;-81
2023/10/04 08:49:33;;;;;;;;;;;;;;;;;;5013204;28;20494;-79
2023/10/04 08:52:01;;;;;;;3.55;1.90;;;;;;;;;;5013848;28;19921;-81
2023/10/04 08:54:28;;;;;;;5.13;1.80;;;;;;;;;;5019785;28;20057;-79
2023/10/04 08:56:57;;;;;;;4.30;2.35;;;;;;;;;;5025013;28;20499;-78
2023/10/04 08:59:25;;;;;;;4.03;1.60;;;;;;;;;;5019038;28;20061;-79
2023/10/04 09:01:52;;;;;;;9.80;2.45;;;;;;;;;;5028659;28;20057;-79
2023/10/04 09:04:24;;;;;;;4.97;2.10;;;;;;;;;;5023600;28;20506;-77
2023/10/04 09:06:52;;;;;;;8.70;2.85;;;;;;;;;;5030867;28;20049;-80
2023/10/04 09:09:19;;;;;;;4.53;1.67;;;;;;;;;;5033238;28;20072;-80
2023/10/04 09:11:46;;;;;;;6.22;2.00;;;;;;;;;;5020181;28;20057;-79
2023/10/04 09:14:14;;;;;;;5.57;2.17;;;;;;;;;;5025021;28;20363;-80
2023/10/04 09:16:41;;;;;;;5.87;2.53;;;;;;;;;;5022333;28;20060;-78
2023/10/04 09:19:09;;;;;;;4.38;2.15;;;;;;;;;;5019112;28;20053;-77
2023/10/04 09:21:38;;;;;;;4.53;2.17;;;;;;;;;;5014365;28;20808;-81
2023/10/04 09:24:06;;;;;;;4.97;2.22;;;;;;;;;;5024570;28;20406;-78
2023/10/04 09:26:33;;;;;;;4.30;1.70;;;;;;;;;;5020338;28;20057;-81
2023/10/04 09:29:00;;;;;;;4.45;2.08;;;;;;;;;;5023987;28;20474;-77
2023/10/04 09:31:27;;;;;;;6.85;2.20;;;;;;;;;;5016148;28;20057;-78
2023/10/04 09:33:56;;;;;;;3.80;1.90;;;;;;;;;;5027963;28;20489;-78
2023/10/04 09:36:42;;;;;;;4.03;1.70;;;;;;;;;;5031486;28;20053;-77
2023/10/04 09:39:13;;;;;;;3.65;2.03;;;;;;;;;;5031212;28;20073;-76
2023/10/04 09:41:42;;;;;;;3.83;1.92;;;;;;;;;;5019398;28;20076;-79
2023/10/04 09:44:18;;;;;;;4.43;2.67;;;;;;;;;;5015031;28;20064;-77
2023/10/04 09:46:54;;;;;;;4.68;2.08;;;;;;;;;;5017644;28;20058;-82
2023/10/04 09:49:24;;;;;;;4.50;1.90;;;;;;;;;;5032007;28;20052;-78
2023/10/04 09:51:52;;;;;;;5.10;1.98;;;;;;;;;;5026429;28;20490;-80
2023/10/04 09:54:20;;;;;;;4.82;2.22;;;;;;;;;;5024854;28;20427;-78
2023/10/04 09:56:47;;;;;;;5.95;2.33;;;;;;;;;;5025208;28;20053;-80
2023/10/04 09:59:16;;;;;;;4.45;2.00;;;;;;;;;;5030160;28;20384;-79
2023/10/04 10:01:44;;;;;;;5.65;2.00;;;;;;;;;;5025831;28;20065;-80
2023/10/04 10:04:15;;;;;;;3.67;1.70;;;;;;;;;;5014228;28;20410;-80
2023/10/04 10:06:47;;;;;;;5.07;2.33;;;;;;;;;;5021799;28;20120;-77
2023/10/04 10:09:18;;;;;;;4.72;1.63;;;;;;;;;;5029483;28;20060;-76
2023/10/04 10:11:46;;;;;;;5.50;2.13;;;;;;;;;;5017261;28;20076;-76
2023/10/04 10:14:14;;;;;;;5.75;2.13;;;;;;;;;;5011450;28;20480;-77
2023/10/04 10:16:42;;;;;;;3.67;1.98;;;;;;;;;;5015171;28;20419;-76
2023/10/04 10:19:09;;;;;;;4.13;1.77;;;;;;;;;;4982062;28;1285972;-78
2023/10/04 10:21:55;;;;;;;6.10;2.08;;;;;;;;;;5019283;28;20065;-79
2023/10/04 10:24:21;;;;;;;4.53;2.30;;;;;;;;;;5020178;28;20073;-76
2023/10/04 10:27:01;;;;;;;4.63;1.77;;;;;;;;;;5030130;28;20057;-76
2023/10/04 10:29:29;;;;;;;7.72;1.90;;;;;;;;;;5031194;28;20065;-75
2023/10/04 10:31:56;;;;;;;3.45;1.85;;;;;;;;;;5030165;28;20064;-76
2023/10/04 10:34:23;;;;;;;4.43;1.77;;;;;;;;;;5030091;28;20057;-76
2023/10/04 10:36:53;;;;;;;7.45;2.10;;;;;;;;;;5031029;28;20057;-76
2023/10/04 10:39:20;;;;;;;6.00;2.20;;;;;;;;;;5024462;28;20371;-76
2023/10/04 10:41:57;;;;;;;10.80;2.80;;;;;;;;;;5014129;28;20054;-76
2023/10/04 10:44:30;;;;;;;5.78;2.30;;;;;;;;;;5026127;28;20057;-76
2023/10/04 10:46:58;;;;;;;4.00;1.95;;;;;;;;;;5024994;28;20061;-76
2023/10/04 10:49:44;;;;;;;6.32;2.40;;;;;;;;;;5026031;28;20056;-78
2023/10/04 10:52:20;;;;;;;4.15;1.60;;;;;;;;;;5017862;28;20521;-80
2023/10/04 10:54:47;;;;;;;3.33;1.38;;;;;;;;;;5021408;28;20069;-77
2023/10/04 10:57:16;;;;;;;5.35;1.88;;;;;;;;;;5024793;28;20061;-78
2023/10/04 10:59:43;;;;;;;8.98;1.90;;;;;;;;;;5026013;28;20057;-78
2023/10/04 11:02:10;;;;;;;5.13;2.65;;;;;;;;;;5030755;28;20050;-78
2023/10/04 11:04:37;;;;;;;2.92;1.92;;;;;;;;;;5024395;28;20041;-78
2023/10/04 11:07:04;;;;;;;6.05;2.00;;;;;;;;;;5030395;28;20053;-79
2023/10/04 11:09:37;;;;;;;4.47;1.65;;;;;;;;;;5020498;28;20524;-79
2023/10/04 11:12:06;;;;;;;4.20;1.63;;;;;;;;;;5022186;28;20072;-78
2023/10/04 11:14:35;;;;;;;6.10;2.22;;;;;;;;;;5027303;28;20478;-78
2023/10/04 11:17:02;;;;;;;4.97;1.85;;;;;;;;;;5015847;28;20753;-78
2023/10/04 11:19:29;;;;;;;4.22;1.58;;;;;;;;;;5014641;28;20062;-79
2023/10/04 11:21:57;;;;;;;4.55;1.67;;;;;;;;;;5021974;28;20410;-76
2023/10/04 11:24:25;;;;;;;4.25;2.22;;;;;;;;;;5017542;28;20058;-78
2023/10/04 11:26:56;;;;;;;4.00;1.60;;;;;;;;;;5019027;28;20409;-78
2023/10/04 11:29:24;;;;;;;3.28;1.77;;;;;;;;;;5013485;28;20050;-78
2023/10/04 11:31:52;;;;;;;3.63;1.40;;;;;;;;;;5023203;28;20046;-78
2023/10/04 11:34:19;;;;;;;3.97;1.70;;;;;;;;;;5018087;28;20410;-78
2023/10/04 11:36:46;;;;;;;4.70;1.70;;;;;;;;;;5018587;28;20503;-80
2023/10/04 11:39:18;;;;;;;3.72;1.70;;;;;;;;;;5022148;28;20049;-80
2023/10/04 11:41:50;;;;;;;4.57;2.40;;;;;;;;;;5027404;28;20057;-77
2023/10/04 11:44:18;;;;;;;3.30;1.20;;;;;;;;;;5015679;28;20056;-77
2023/10/04 11:46:59;;;;;;;4.10;2.15;;;;;;;;;;5024424;28;20065;-77
2023/10/04 11:49:28;;;;;;;5.20;1.95;;;;;;;;;;5028565;28;20056;-77
2023/10/04 11:51:58;;;;;;;5.28;2.25;;;;;;;;;;5024502;28;20410;-79
2023/10/04 11:54:26;;;;;;;3.92;2.00;;;;;;;;;;5028704;28;20050;-79
2023/10/04 11:56:53;;;;;;;5.63;1.92;;;;;;;;;;5037670;28;20057;-79
2023/10/04 11:59:30;;;;;;;6.47;1.80;;;;;;;;;;5016000;28;20065;-79
2023/10/04 12:01:58;;;;;;;3.67;2.17;;;;;;;;;;5025425;28;20061;-79
2023/10/04 12:04:25;;;;;;;6.60;1.70;;;;;;;;;;5030249;28;20050;-78
2023/10/04 12:06:58;;;;;;;6.30;2.50;;;;;;;;;;5025768;28;20052;-77
2023/10/04 12:09:27;;;;;;;3.40;1.85;;;;;;;;;;5025389;28;20050;-76
2023/10/04 12:11:54;;;;;;;4.72;1.77;;;;;;;;;;5018676;28;20061;-76
2023/10/04 12:14:21;;;;;;;3.67;2.10;;;;;;;;;;5017009;28;20061;-80
2023/10/04 12:16:48;;;;;;;4.25;1.98;;;;;;;;;;5018849;28;20054;-77
2023/10/04 12:19:18;;;;;;;2.72;1.45;;;;;;;;;;5026249;28;20053;-77
2023/10/04 12:21:45;;;;;;;4.72;2.15;;;;;;;;;;5013876;28;20057;-78
2023/10/04 12:24:12;;;;;;;4.00;1.75;;;;;;;;;;5014407;28;20060;-84
2023/10/04 12:26:40;;;;;;;3.13;1.55;;;;;;;;;;5017548;28;20691;-78
2023/10/04 12:29:07;;;;;;;5.25;1.70;;;;;;;;;;5024590;28;20057;-80
2023/10/04 12:31:34;;;;;;;4.38;1.90;;;;;;;;;;5028975;28;20057;-79
2023/10/04 12:34:01;;;;;;;4.75;2.08;;;;;;;;;;5028665;28;20053;-77
2023/10/04 12:36:29;;;;;;;4.47;1.90;;;;;;;;;;5021068;28;20525;-76
2023/10/04 12:38:56;;;;;;;4.68;1.67;;;;;;;;;;5019694;28;20053;-77
2023/10/04 12:41:22;;;;;;;4.47;2.00;;;;;;;;;;5017699;28;20068;-77
2023/10/04 12:43:49;;;;;;;5.25;2.13;;;;;;;;;;5013184;28;20062;-78
2023/10/04 12:46:16;;;;;;;3.55;1.75;;;;;;;;;;5014976;28;20049;-78
2023/10/04 12:48:43;;;;;;;2.72;1.70;;;;;;;;;;5026752;28;20410;-77
2023/10/04 12:51:10;;;;;;;4.03;2.00;;;;;;;;;;5015676;28;20069;-78
2023/10/04 12:53:38;;;;;;;3.35;1.42;;;;;;;;;;5031974;28;20072;-79
2023/10/04 12:56:06;;;;;;;2.92;1.98;;;;;;;;;;5026030;28;20049;-78
2023/10/04 12:58:33;;;;;;;4.03;1.95;;;;;;;;;;5016881;28;20054;-80
2023/10/04 13:01:04;;;;;;;5.38;1.73;;;;;;;;;;5017643;28;20058;-77
2023/10/04 13:03:31;;;;;;;4.43;1.73;;;;;;;;;;5031253;28;20053;-77
2023/10/04 13:05:58;;;;;;;3.95;2.03;;;;;;;;;;5031921;28;20056;-80
2023/10/04 13:08:25;;;;;;;4.35;2.17;;;;;;;;;;5021090;28;20057;-77
2023/10/04 13:10:55;;;;;;;5.53;2.22;;;;;;;;;;5021625;28;20061;-78
2023/10/04 13:13:22;;;;;;;4.78;2.53;;;;;;;;;;5020584;28;20498;-76
2023/10/04 13:15:51;;;;;;;5.28;1.98;;;;;;;;;;5017229;28;20057;-76
2023/10/04 13:18:17;;;;;;;3.55;2.00;;;;;;;;;;5041053;28;20049;-81
2023/10/04 13:20:45;;;;;;;6.38;2.92;;;;;;;;;;5021798;28;20045;-77
2023/10/04 13:23:12;;;;;;;5.32;2.58;;;;;;;;;;5016910;28;20471;-77
2023/10/04 13:25:39;;;;;;;3.97;2.17;;;;;;;;;;5023357;28;20053;-81
2023/10/04 13:28:16;;;;;;;6.85;2.40;;;;;;;;;;5018134;28;20050;-78
2023/10/04 13:30:44;;;;;;;5.82;2.42;;;;;;;;;;5015394;28;20053;-78
2023/10/04 13:33:11;;;;;;;6.50;3.30;;;;;;;;;;5028765;28;20525;-79
2023/10/04 13:35:38;;;;;;;7.75;2.17;;;;;;;;;;5027922;28;20444;-81
2023/10/04 13:38:05;;;;;;;4.85;2.00;;;;;;;;;;5015377;28;20443;-80
2023/10/04 13:40:35;;;;;;;5.55;2.30;;;;;;;;;;5013323;28;20061;-81
2023/10/04 13:43:05;;;;;;;5.00;2.47;;;;;;;;;;5017831;28;20053;-82
2023/10/04 13:45:35;;;;;;;5.15;2.00;;;;;;;;;;5032483;28;20418;-80
2023/10/04 13:48:09;;;;;;;4.63;2.38;;;;;;;;;;5025386;28;20053;-81
2023/10/04 13:50:37;;;;;;;5.63;2.65;;;;;;;;;;5023499;28;20054;-81
2023/10/04 13:53:04;;;;;;;6.10;2.35;;;;;;;;;;5023560;28;20053;-81
2023/10/04 13:55:31;;;;;;;5.65;3.13;;;;;;;;;;5032603;28;20064;-80
2023/10/04 13:57:59;;;;;;;7.63;3.20;;;;;;;;;;5017649;28;20049;-81
2023/10/04 14:00:26;;;;;;;4.07;2.20;;;;;;;;;;5013837;28;20057;-81
2023/10/04 14:02:55;;;;;;;5.75;2.78;;;;;;;;;;5016519;28;20052;-80
2023/10/04 14:05:22;;;;;;;6.15;3.40;;;;;;;;;;5022421;28;20056;-82
2023/10/04 14:07:51;;;;;;;6.03;2.92;;;;;;;;;;5011778;28;20475;-83
2023/10/04 14:10:22;;;;;;;6.20;2.38;;;;;;;;;;5027575;28;20053;-82
2023/10/04 14:12:49;;;;;;;6.35;3.03;;;;;;;;;;5027776;28;20057;-78
2023/10/04 14:15:16;;;;;;;4.97;2.30;;;;;;;;;;5027907;28;20550;-79
2023/10/04 14:17:43;;;;;;;7.55;3.22;;;;;;;;;;5023341;28;20046;-79
2023/10/04 14:20:14;;;;;;;8.65;2.35;;;;;;;;;;5014847;28;20061;-80
2023/10/04 14:22:41;;;;;;;4.15;1.92;;;;;;;;;;5016595;28;20083;-80
2023/10/04 14:25:09;;;;;;;6.72;2.28;;;;;;;;;;5013720;28;20069;-80
2023/10/04 14:27:36;;;;;;;5.70;2.80;;;;;;;;;;5015909;28;20425;-83
2023/10/04 14:30:03;;;;;;;5.07;2.63;;;;;;;;;;5030138;28;20050;-82
2023/10/04 14:32:30;;;;;;;4.38;2.15;;;;;;;;;;5003806;28;20061;-83
2023/10/04 14:34:57;;;;;;;5.43;2.35;;;;;;;;;;5029379;28;20053;-81
2023/10/04 14:37:26;;;;;;;5.50;2.58;;;;;;;;;;5013723;28;20050;-81
2023/10/04 14:39:58;;;;;;;5.35;2.85;;;;;;;;;;5030881;28;20057;-83
2023/10/04 14:42:24;;;;;;;6.70;2.22;;;;;;;;;;5020607;28;20053;-81
2023/10/04 14:44:51;;;;;;;5.78;2.35;;;;;;;;;;5024567;28;20072;-82
2023/10/04 14:47:18;;;;;;;5.47;2.40;;;;;;;;;;5020320;28;20145;-81
2023/10/04 14:49:48;;;;;;;5.88;2.78;;;;;;;;;;5024759;28;20061;-80